Centerton, New Jersey
Current Conditions -  °F | °C
As of 9:54 PM on Thursday 27 Nov 2014 (Local Time) from KMIV Reporting Station
Clear Clear  
Wind Chill: 23°   Ceiling: Unl
Heat Index: 28°   Visibility: 10mi
Dew Point: 25°   Wind: 5mph
Humidity: 88%   Direction: 280°W
Pressure: 30.11"   Gusts: NA
Location:  39.5646°N, 75.1874°W
Report Text: KMIV 280254Z AUTO 28004KT 10SM CLR M02/M04 A3011 RMK AO2 SLP194 T10221039 50008
Loading
Personal Weather Stations






























Interactive Weather Map New forecast layout! Learn more

10-Day Weather Forecast

Advertisements
Track Severe Weather on mobile